Time;durP1;ratioP1;P1;durP2;ratioP2;P2;SDS_P1;SDS_P2;PMS_P1;PMS_P2;Temp;Humidity;BMP_temperature;BMP_pressure;BME280_temperature;BME280_humidity;BME280_pressure;Samples;Min_cycle;Max_cycle;Signal;HPM_P1;HPM_P2
2023/12/18 00:01:30;;;;;;;23.08;14.45;;;-0.60;99.90;;;;;;5105611;28;20220;-69
2023/12/18 00:04:02;;;;;;;26.40;14.32;;;-0.60;99.90;;;;;;5104591;28;20210;-66
2023/12/18 00:06:32;;;;;;;21.52;13.30;;;-0.60;99.90;;;;;;5104474;28;20365;-69
2023/12/18 00:09:00;;;;;;;27.50;15.05;;;-0.60;99.90;;;;;;5104388;28;20276;-69
2023/12/18 00:11:30;;;;;;;24.45;14.40;;;-0.60;99.90;;;;;;5104939;28;20218;-69
2023/12/18 00:13:58;;;;;;;22.08;14.43;;;-0.50;99.90;;;;;;5103375;28;20207;-67
2023/12/18 00:16:26;;;;;;;22.35;13.65;;;-0.50;99.90;;;;;;5103948;28;20222;-69
2023/12/18 00:18:54;;;;;;;21.48;13.70;;;-0.50;99.90;;;;;;5087610;28;20820;-69
2023/12/18 00:21:22;;;;;;;21.90;13.18;;;-0.50;99.90;;;;;;5084038;28;20672;-70
2023/12/18 00:23:50;;;;;;;21.83;14.00;;;-0.50;99.90;;;;;;5083791;28;20212;-69
2023/12/18 00:26:18;;;;;;;24.67;14.30;;;-0.60;99.90;;;;;;5083612;28;20220;-69
2023/12/18 00:28:47;;;;;;;23.00;13.32;;;-0.50;99.90;;;;;;5084218;28;20320;-69
2023/12/18 00:31:15;;;;;;;22.08;14.60;;;-0.50;99.90;;;;;;5086989;28;20216;-70
2023/12/18 00:33:43;;;;;;;19.58;11.90;;;-0.50;99.90;;;;;;5103489;28;20204;-69
2023/12/18 00:36:11;;;;;;;23.10;13.30;;;-0.50;99.90;;;;;;5104492;28;20704;-69
2023/12/18 00:38:39;;;;;;;19.58;11.65;;;-0.60;99.90;;;;;;5105696;28;20203;-69
2023/12/18 00:41:07;;;;;;;21.25;12.00;;;-0.60;99.90;;;;;;5103264;28;20228;-68
2023/12/18 00:43:35;;;;;;;20.17;12.55;;;-0.60;99.90;;;;;;5100145;28;20199;-68
2023/12/18 00:46:05;;;;;;;21.60;12.25;;;-0.60;99.90;;;;;;5103264;28;20284;-68
2023/12/18 00:48:34;;;;;;;21.10;12.18;;;-0.70;99.90;;;;;;5103424;28;21011;-68
2023/12/18 00:51:02;;;;;;;18.35;12.32;;;-0.70;99.90;;;;;;5101873;28;20669;-68
2023/12/18 00:53:30;;;;;;;21.45;12.35;;;-0.80;99.90;;;;;;5098083;28;20231;-69
2023/12/18 00:55:58;;;;;;;21.00;12.80;;;-0.80;99.90;;;;;;5103685;28;20229;-69
2023/12/18 00:58:26;;;;;;;21.65;11.35;;;-0.60;99.90;;;;;;5104076;28;20206;-68
2023/12/18 01:00:54;;;;;;;21.08;12.20;;;-0.60;99.90;;;;;;5104199;28;20570;-69
2023/12/18 01:03:23;;;;;;;20.65;11.57;;;-0.60;99.90;;;;;;5103442;28;20231;-69
2023/12/18 01:05:51;;;;;;;20.25;11.70;;;-0.60;99.90;;;;;;5103274;28;20223;-68
2023/12/18 01:08:19;;;;;;;18.13;11.98;;;-0.60;99.90;;;;;;5103852;28;20203;-69
2023/12/18 01:10:47;;;;;;;18.27;11.35;;;-0.80;99.90;;;;;;5105568;28;20227;-69
2023/12/18 01:13:15;;;;;;;19.17;11.15;;;-0.80;99.90;;;;;;5106141;28;20296;-69
2023/12/18 01:15:43;;;;;;;20.30;11.48;;;-0.90;99.90;;;;;;5107033;28;20337;-68
2023/12/18 01:18:11;;;;;;;19.75;11.75;;;-0.90;99.90;;;;;;5107645;28;20215;-68
2023/12/18 01:20:41;;;;;;;20.88;12.35;;;-0.80;99.90;;;;;;5107489;28;20195;-68
2023/12/18 01:23:09;;;;;;;19.60;11.30;;;-0.90;99.90;;;;;;5106687;28;20245;-68
2023/12/18 01:25:37;;;;;;;18.88;11.15;;;-0.90;99.90;;;;;;5106520;28;20241;-68
2023/12/18 01:28:06;;;;;;;19.75;12.05;;;-1.00;99.90;;;;;;5107521;28;20210;-68
2023/12/18 01:30:34;;;;;;;19.30;11.18;;;-1.00;99.90;;;;;;5107346;28;20234;-68
2023/12/18 01:33:02;;;;;;;20.77;12.10;;;-1.00;99.90;;;;;;5106760;28;20286;-68
2023/12/18 01:35:30;;;;;;;21.63;13.00;;;-1.10;99.90;;;;;;5106413;28;20223;-68
2023/12/18 01:38:00;;;;;;;19.92;11.20;;;-1.00;99.90;;;;;;5106906;28;20219;-68
2023/12/18 01:40:28;;;;;;;23.90;11.38;;;-0.90;99.90;;;;;;5106634;28;20273;-68
2023/12/18 01:42:56;;;;;;;19.00;10.90;;;-1.00;99.90;;;;;;5107534;28;20231;-67
2023/12/18 01:45:24;;;;;;;20.08;11.40;;;-1.00;99.90;;;;;;5107299;28;20226;-68
2023/12/18 01:47:53;;;;;;;19.27;10.15;;;-0.90;99.90;;;;;;5108278;28;20211;-68
2023/12/18 01:50:21;;;;;;;16.27;9.77;;;-0.80;99.90;;;;;;5107814;28;20235;-67
2023/12/18 01:52:49;;;;;;;18.30;9.80;;;-0.80;99.90;;;;;;5107351;28;20297;-67
2023/12/18 01:55:18;;;;;;;20.42;10.68;;;-0.90;99.90;;;;;;5106737;28;20227;-68
2023/12/18 01:57:47;;;;;;;19.10;10.00;;;-1.10;99.90;;;;;;5107845;28;20206;-67
2023/12/18 02:00:15;;;;;;;19.02;10.25;;;-1.00;99.90;;;;;;5103796;28;20231;-67
2023/12/18 02:02:43;;;;;;;19.95;9.98;;;-1.00;99.90;;;;;;5105895;28;20207;-67
2023/12/18 02:05:11;;;;;;;17.35;10.70;;;-1.00;99.90;;;;;;5106089;28;20907;-68
2023/12/18 02:07:39;;;;;;;16.38;9.90;;;-1.00;99.90;;;;;;5106949;28;20214;-68
2023/12/18 02:10:12;;;;;;;14.90;9.57;;;-1.00;99.90;;;;;;5100306;28;20231;-67
2023/12/18 02:12:42;;;;;;;17.65;9.75;;;-0.90;99.90;;;;;;5106165;28;20228;-68
2023/12/18 02:15:13;;;;;;;17.90;9.60;;;-1.00;99.90;;;;;;5106373;28;20231;-68
2023/12/18 02:17:41;;;;;;;19.30;9.82;;;-1.10;99.90;;;;;;5107158;28;20309;-68
2023/12/18 02:20:10;;;;;;;18.27;10.48;;;-1.00;99.90;;;;;;5106566;28;20211;-68
2023/12/18 02:22:51;;;;;;;19.60;11.10;;;-0.90;99.90;;;;;;5069321;28;20258;-67
2023/12/18 02:25:20;;;;;;;17.25;10.15;;;-0.90;99.90;;;;;;5105280;28;20313;-67
2023/12/18 02:27:49;;;;;;;19.85;11.20;;;-1.00;99.90;;;;;;5106080;27;20239;-68
2023/12/18 02:30:19;;;;;;;15.43;10.10;;;-0.90;99.90;;;;;;5106184;28;20852;-67
2023/12/18 02:32:47;;;;;;;18.85;10.05;;;-0.80;99.90;;;;;;5105828;28;20713;-68
2023/12/18 02:35:15;;;;;;;19.02;10.55;;;-0.90;99.90;;;;;;5104869;28;20322;-68
2023/12/18 02:37:45;;;;;;;17.38;10.00;;;-0.80;99.90;;;;;;5106202;28;20310;-68
2023/12/18 02:40:13;;;;;;;18.27;10.25;;;-0.80;99.90;;;;;;5105714;28;20196;-67
2023/12/18 02:42:41;;;;;;;14.75;8.45;;;-0.90;99.90;;;;;;5105455;28;20227;-66
2023/12/18 02:45:10;;;;;;;16.67;9.00;;;-0.90;99.90;;;;;;5105218;28;20318;-68
2023/12/18 02:47:38;;;;;;;21.13;11.77;;;-0.80;99.90;;;;;;5106644;28;20199;-67
2023/12/18 02:50:07;;;;;;;18.75;10.13;;;-0.70;99.90;;;;;;5105958;28;20724;-68
2023/12/18 02:52:35;;;;;;;18.02;10.35;;;-0.80;99.90;;;;;;5105169;28;20207;-68
2023/12/18 02:55:05;;;;;;;18.33;9.70;;;-0.80;99.90;;;;;;5104718;28;20314;-69
2023/12/18 02:57:33;;;;;;;15.05;9.68;;;-0.70;99.90;;;;;;5105556;28;20251;-68
2023/12/18 03:00:01;;;;;;;17.35;9.80;;;-0.80;99.90;;;;;;5106388;28;20756;-69
2023/12/18 03:02:29;;;;;;;17.88;10.38;;;-0.80;99.90;;;;;;5106075;28;20306;-67
2023/12/18 03:04:57;;;;;;;16.73;9.85;;;-1.00;99.90;;;;;;5105172;28;20611;-68
2023/12/18 03:07:25;;;;;;;14.77;8.90;;;-0.90;99.90;;;;;;5106872;28;20208;-68
2023/12/18 03:09:53;;;;;;;16.42;9.60;;;-0.70;99.90;;;;;;5106119;28;20238;-68
2023/12/18 03:12:23;;;;;;;16.17;9.32;;;-0.80;99.90;;;;;;5106469;28;20256;-68
2023/12/18 03:14:51;;;;;;;16.65;9.40;;;-0.80;99.90;;;;;;5105273;28;20210;-69
2023/12/18 03:17:19;;;;;;;17.67;10.63;;;-0.80;99.90;;;;;;5100388;28;21192;-66
2023/12/18 03:19:47;;;;;;;18.83;10.10;;;-0.80;99.90;;;;;;5105006;28;20231;-66
2023/12/18 03:22:15;;;;;;;18.23;9.80;;;-0.80;99.90;;;;;;5106163;28;20204;-68
2023/12/18 03:24:43;;;;;;;16.08;9.13;;;-0.70;99.90;;;;;;5104920;28;20414;-68
2023/12/18 03:27:11;;;;;;;16.42;8.52;;;-0.80;99.90;;;;;;5106103;28;20735;-69
2023/12/18 03:29:40;;;;;;;14.77;8.95;;;-0.90;99.90;;;;;;5106171;28;20295;-67
2023/12/18 03:32:08;;;;;;;15.70;9.10;;;-0.80;99.90;;;;;;5105640;28;20226;-68
2023/12/18 03:34:36;;;;;;;15.45;9.25;;;-0.80;99.90;;;;;;5104136;28;20228;-67
2023/12/18 03:37:04;;;;;;;16.67;9.73;;;-0.70;99.90;;;;;;5105897;28;20231;-67
2023/12/18 03:39:32;;;;;;;16.80;9.43;;;-0.80;99.90;;;;;;5105664;28;20694;-68
2023/12/18 03:42:00;;;;;;;18.35;10.13;;;-0.90;99.90;;;;;;5106259;28;20294;-68
2023/12/18 03:44:28;;;;;;;17.02;9.32;;;-0.80;99.90;;;;;;5104657;28;20301;-68
2023/12/18 03:46:58;;;;;;;17.55;9.60;;;-0.90;99.90;;;;;;5105668;28;20246;-68
2023/12/18 03:49:26;;;;;;;17.45;9.13;;;-0.80;99.90;;;;;;5105979;28;20231;-68
2023/12/18 03:51:54;;;;;;;17.73;9.45;;;-0.80;99.90;;;;;;5106517;28;20298;-68
2023/12/18 03:54:22;;;;;;;16.02;8.60;;;-0.80;99.90;;;;;;5105485;28;20225;-68
2023/12/18 03:56:50;;;;;;;15.30;8.07;;;-0.90;99.90;;;;;;5106440;28;20287;-68
2023/12/18 03:59:18;;;;;;;14.60;8.25;;;-0.90;99.90;;;;;;5106039;28;20237;-67
2023/12/18 04:01:46;;;;;;;16.90;9.60;;;-1.10;99.90;;;;;;5105224;28;20221;-69
2023/12/18 04:04:15;;;;;;;16.95;9.85;;;-0.90;99.90;;;;;;5105654;28;20253;-69
2023/12/18 04:06:44;;;;;;;17.73;9.05;;;-0.90;99.90;;;;;;5107885;28;20255;-67
2023/12/18 04:09:13;;;;;;;18.77;9.65;;;-0.90;99.90;;;;;;5103816;28;20227;-68
2023/12/18 04:11:44;;;;;;;19.10;10.40;;;-0.90;99.90;;;;;;5104157;28;20244;-69
2023/12/18 04:14:12;;;;;;;16.05;10.25;;;-0.90;99.90;;;;;;5103217;28;20203;-68
2023/12/18 04:16:40;;;;;;;17.60;9.45;;;-0.90;99.90;;;;;;5103676;28;20309;-68
2023/12/18 04:19:08;;;;;;;17.92;10.05;;;-1.00;99.90;;;;;;5103823;28;20267;-68
2023/12/18 04:21:37;;;;;;;17.83;9.88;;;-0.90;99.90;;;;;;5099095;27;20355;-67
2023/12/18 04:24:06;;;;;;;18.35;10.40;;;-1.00;99.90;;;;;;5102786;28;20234;-68
2023/12/18 04:26:34;;;;;;;17.15;10.00;;;-0.80;99.90;;;;;;5098970;28;20252;-67
2023/12/18 04:29:02;;;;;;;17.90;10.65;;;-0.70;99.90;;;;;;5082746;28;20314;-68
2023/12/18 04:31:30;;;;;;;21.25;10.15;;;-0.70;99.90;;;;;;5085317;28;20242;-67
2023/12/18 04:33:58;;;;;;;17.38;9.75;;;-0.80;99.90;;;;;;5078404;28;20228;-65
2023/12/18 04:36:26;;;;;;;16.67;9.90;;;-0.90;99.90;;;;;;5084323;28;20219;-69
2023/12/18 04:38:56;;;;;;;18.42;10.20;;;-0.90;99.90;;;;;;5085036;28;20204;-71
2023/12/18 04:41:24;;;;;;;16.63;8.77;;;-0.90;99.90;;;;;;5085369;28;20196;-68
2023/12/18 04:43:52;;;;;;;16.75;9.38;;;-0.90;99.90;;;;;;5084526;28;20235;-68
2023/12/18 04:46:20;;;;;;;19.23;10.55;;;-1.00;99.90;;;;;;5095998;28;20292;-69
2023/12/18 04:48:48;;;;;;;18.50;10.80;;;-1.10;99.90;;;;;;5107405;28;20315;-69
2023/12/18 04:51:16;;;;;;;16.90;9.55;;;-1.10;99.90;;;;;;5107838;28;20222;-69
2023/12/18 04:53:44;;;;;;;16.90;8.65;;;-1.10;99.90;;;;;;5107413;28;20253;-68
2023/12/18 04:56:13;;;;;;;19.00;10.05;;;-1.10;99.90;;;;;;5107095;28;20318;-68
2023/12/18 04:58:41;;;;;;;17.33;10.65;;;-1.10;99.90;;;;;;5093538;27;20312;-69
2023/12/18 05:01:10;;;;;;;19.65;10.50;;;-1.10;99.90;;;;;;5087235;28;20871;-68
2023/12/18 05:03:38;;;;;;;16.17;10.07;;;-1.20;99.90;;;;;;5086417;28;20220;-68
2023/12/18 05:06:19;;;;;;;19.40;9.45;;;-1.20;99.90;;;;;;5086406;28;20227;-69
2023/12/18 05:08:47;;;;;;;15.00;8.60;;;-1.10;99.90;;;;;;5087540;28;20223;-68
2023/12/18 05:11:19;;;;;;;16.60;9.95;;;-1.10;99.90;;;;;;5091477;28;20211;-69
2023/12/18 05:13:47;;;;;;;16.92;9.15;;;-1.00;99.90;;;;;;5100730;28;20210;-68
2023/12/18 05:16:16;;;;;;;17.23;9.85;;;-1.10;99.90;;;;;;5084764;28;20255;-68
2023/12/18 05:18:44;;;;;;;19.63;11.82;;;-1.20;99.90;;;;;;5087721;28;20895;-68
2023/12/18 05:21:12;;;;;;;18.60;9.95;;;-1.20;99.90;;;;;;5088043;28;20337;-68
2023/12/18 05:23:41;;;;;;;24.50;11.98;;;-1.10;99.90;;;;;;5087665;28;20269;-68
2023/12/18 05:26:09;;;;;;;22.10;11.45;;;-1.10;99.90;;;;;;5087134;28;20220;-68
2023/12/18 05:28:38;;;;;;;19.77;10.88;;;-1.10;99.90;;;;;;5088374;28;20917;-69
2023/12/18 05:31:09;;;;;;;19.95;11.38;;;-1.20;99.90;;;;;;5088020;28;20772;-69
2023/12/18 05:33:38;;;;;;;16.85;10.75;;;-1.10;99.90;;;;;;5085363;28;20251;-70
2023/12/18 05:36:14;;;;;;;19.10;10.43;;;-1.10;99.90;;;;;;5081091;28;20228;-69
2023/12/18 05:38:42;;;;;;;17.38;10.45;;;-1.10;99.90;;;;;;5087688;28;20224;-69
2023/12/18 05:41:10;;;;;;;21.40;11.60;;;-1.00;99.90;;;;;;5096708;28;20224;-69
2023/12/18 05:43:39;;;;;;;19.02;10.70;;;-0.90;99.90;;;;;;5107016;28;20230;-69
2023/12/18 05:46:12;;;;;;;18.83;10.25;;;-1.00;99.90;;;;;;5105101;28;20280;-70
2023/12/18 05:48:40;;;;;;;19.58;11.18;;;-1.00;99.90;;;;;;5100745;28;20284;-69
2023/12/18 05:51:19;;;;;;;20.40;10.70;;;-1.10;99.90;;;;;;5107268;28;20226;-70
2023/12/18 05:53:56;;;;;;;19.27;10.77;;;-1.30;99.90;;;;;;5106248;28;20210;-66
2023/12/18 05:56:24;;;;;;;17.50;10.43;;;-1.20;99.90;;;;;;5105558;28;20238;-68
2023/12/18 05:58:53;;;;;;;26.85;11.55;;;-1.30;99.90;;;;;;5106613;28;20624;-69
2023/12/18 06:01:21;;;;;;;19.23;10.25;;;-1.30;99.90;;;;;;5106355;28;20290;-69
2023/12/18 06:03:49;;;;;;;19.08;11.05;;;-1.20;99.90;;;;;;5105680;28;20211;-68
2023/12/18 06:06:17;;;;;;;21.75;12.25;;;-1.20;99.90;;;;;;5105469;28;20280;-68
2023/12/18 06:08:45;;;;;;;20.67;11.23;;;-1.20;99.90;;;;;;5097847;28;20226;-67
2023/12/18 06:11:15;;;;;;;19.65;10.75;;;-1.30;99.90;;;;;;5103783;27;20286;-66
2023/12/18 06:13:43;;;;;;;20.70;10.98;;;-1.30;99.90;;;;;;5100751;28;20230;-68
2023/12/18 06:16:12;;;;;;;18.85;11.18;;;-1.30;99.90;;;;;;5106388;28;20981;-66
2023/12/18 06:18:40;;;;;;;20.63;10.85;;;-1.40;99.90;;;;;;5106234;28;20720;-68
2023/12/18 06:21:08;;;;;;;17.67;10.90;;;-1.30;99.90;;;;;;5107383;27;20211;-67
2023/12/18 06:23:36;;;;;;;18.73;10.75;;;-1.20;99.90;;;;;;5106758;28;20203;-66
2023/12/18 06:26:05;;;;;;;21.25;11.90;;;-1.20;99.90;;;;;;5106878;28;20291;-68
2023/12/18 06:28:32;;;;;;;18.25;10.50;;;-1.30;99.90;;;;;;5107607;28;20203;-67
2023/12/18 06:31:01;;;;;;;16.30;9.77;;;-1.20;99.90;;;;;;5107581;28;20692;-67
2023/12/18 06:33:30;;;;;;;18.40;10.20;;;-1.10;99.90;;;;;;5106452;28;20310;-68
2023/12/18 06:35:58;;;;;;;18.23;10.50;;;-1.10;99.90;;;;;;5106304;28;20313;-69
2023/12/18 06:38:27;;;;;;;18.92;9.60;;;-1.20;99.90;;;;;;5107506;28;20293;-69
2023/12/18 06:40:55;;;;;;;17.30;9.80;;;-1.40;99.90;;;;;;5103349;28;20283;-68
2023/12/18 06:43:23;;;;;;;18.17;10.52;;;-1.40;99.90;;;;;;5105418;28;20237;-68
2023/12/18 06:45:51;;;;;;;19.40;11.18;;;-1.30;99.90;;;;;;5106383;28;20223;-69
2023/12/18 06:48:19;;;;;;;18.80;10.20;;;-1.20;99.90;;;;;;5107131;28;20219;-67
2023/12/18 06:50:49;;;;;;;19.08;10.05;;;-1.20;99.90;;;;;;5106482;28;20272;-67
2023/12/18 06:53:17;;;;;;;16.73;10.27;;;-1.20;99.90;;;;;;5102158;28;20223;-67
2023/12/18 06:55:45;;;;;;;16.63;9.40;;;-1.30;99.90;;;;;;5105984;28;20242;-68
2023/12/18 06:58:13;;;;;;;17.60;10.27;;;-1.30;99.90;;;;;;5106955;28;20230;-66
2023/12/18 07:00:41;;;;;;;18.38;9.73;;;-1.30;99.90;;;;;;5107766;28;20291;-68
2023/12/18 07:03:10;;;;;;;19.02;10.00;;;-1.20;99.90;;;;;;5106925;28;20747;-68
2023/12/18 07:05:38;;;;;;;17.30;9.75;;;-1.40;99.90;;;;;;5106054;28;20223;-68
2023/12/18 07:08:08;;;;;;;17.80;9.50;;;-1.50;99.90;;;;;;5106077;28;20210;-69
2023/12/18 07:10:35;;;;;;;22.23;10.50;;;-1.40;99.90;;;;;;5106776;27;20203;-68
2023/12/18 07:13:06;;;;;;;15.98;9.68;;;-1.40;99.90;;;;;;5106495;28;20223;-68
2023/12/18 07:15:34;;;;;;;19.83;9.30;;;-1.50;99.90;;;;;;5106038;27;20759;-68
2023/12/18 07:18:07;;;;;;;20.48;9.88;;;-1.40;99.90;;;;;;5106691;28;20251;-69
2023/12/18 07:20:36;;;;;;;16.88;9.20;;;-1.40;99.90;;;;;;5106490;28;20661;-69
2023/12/18 07:23:04;;;;;;;17.30;10.48;;;-1.30;99.90;;;;;;5105795;28;20205;-69
2023/12/18 07:25:33;;;;;;;16.55;10.00;;;-1.30;99.90;;;;;;5097388;28;20231;-69
2023/12/18 07:28:01;;;;;;;18.38;10.07;;;-1.30;99.90;;;;;;5105899;28;20259;-69
2023/12/18 07:30:29;;;;;;;20.50;11.68;;;-1.20;99.90;;;;;;5106179;28;20203;-69
2023/12/18 07:32:57;;;;;;;18.63;10.20;;;-1.30;99.90;;;;;;5105786;28;20334;-69
2023/12/18 07:35:25;;;;;;;16.33;9.93;;;-1.30;99.90;;;;;;5104723;28;20309;-69
2023/12/18 07:37:53;;;;;;;18.17;9.75;;;-1.20;99.90;;;;;;5107321;28;20227;-69
2023/12/18 07:40:21;;;;;;;17.75;10.38;;;-1.20;99.90;;;;;;5107026;28;20587;-68
2023/12/18 07:42:51;;;;;;;16.55;9.48;;;-1.20;99.90;;;;;;5106765;28;20199;-69
2023/12/18 07:45:19;;;;;;;19.55;10.23;;;-1.00;99.90;;;;;;5099643;27;20234;-69
2023/12/18 07:47:47;;;;;;;19.40;10.77;;;-1.10;99.90;;;;;;5106527;28;20222;-69
2023/12/18 07:50:16;;;;;;;17.27;10.30;;;-1.10;99.90;;;;;;5105526;28;20195;-68
2023/12/18 07:52:44;;;;;;;16.50;10.02;;;-1.20;99.90;;;;;;5089801;28;20249;-66
2023/12/18 07:55:12;;;;;;;16.75;9.85;;;-1.20;99.90;;;;;;5091649;28;20722;-67
2023/12/18 07:57:42;;;;;;;19.50;11.60;;;-1.10;99.90;;;;;;5090322;28;20294;-68
2023/12/18 08:00:13;;;;;;;19.15;11.38;;;-1.10;99.90;;;;;;5088346;28;20204;-68
2023/12/18 08:02:41;;;;;;;17.38;10.27;;;-1.10;99.90;;;;;;5088945;28;20306;-68
2023/12/18 08:05:10;;;;;;;17.67;11.15;;;-0.90;99.90;;;;;;5091319;28;20214;-68
2023/12/18 08:07:38;;;;;;;18.08;10.18;;;-0.70;99.90;;;;;;5103204;28;20238;-68
2023/12/18 08:10:07;;;;;;;16.23;9.88;;;-0.60;99.90;;;;;;5092524;27;20215;-68
2023/12/18 08:12:35;;;;;;;20.88;11.48;;;-0.60;99.90;;;;;;5098065;28;20323;-69
2023/12/18 08:15:07;;;;;;;20.77;10.80;;;-0.70;99.90;;;;;;5105056;28;20227;-68
2023/12/18 08:17:39;;;;;;;20.50;10.35;;;-0.70;99.90;;;;;;5106020;28;20751;-68
2023/12/18 08:20:11;;;;;;;15.35;10.05;;;-0.50;99.90;;;;;;5109565;28;20749;-68
2023/12/18 08:22:39;;;;;;;19.67;10.05;;;-0.40;99.90;;;;;;5109670;27;20206;-67
2023/12/18 08:25:08;;;;;;;18.55;11.50;;;-0.30;99.90;;;;;;5109114;28;20223;-67
2023/12/18 08:27:36;;;;;;;17.05;10.30;;;-0.20;99.90;;;;;;5110174;28;20345;-67
2023/12/18 08:30:05;;;;;;;19.50;9.68;;;-0.20;99.90;;;;;;5109249;28;20288;-68
2023/12/18 08:32:33;;;;;;;17.15;9.77;;;-0.10;99.90;;;;;;5110215;28;20257;-68
2023/12/18 08:35:03;;;;;;;18.33;10.50;;;0.00;99.90;;;;;;5109647;28;20220;-67
2023/12/18 08:37:31;;;;;;;17.25;10.70;;;0.20;99.90;;;;;;5110709;28;20218;-68
2023/12/18 08:39:59;;;;;;;17.95;10.88;;;0.40;99.90;;;;;;5110706;28;20210;-68
2023/12/18 08:42:27;;;;;;;17.83;10.50;;;0.50;99.90;;;;;;5110155;28;20215;-68
2023/12/18 08:44:55;;;;;;;19.33;11.52;;;0.60;99.90;;;;;;5108490;28;20655;-68
2023/12/18 08:47:26;;;;;;;19.60;10.70;;;0.70;99.90;;;;;;5109488;28;20575;-68
2023/12/18 08:49:54;;;;;;;19.73;11.57;;;0.70;99.90;;;;;;5109678;28;20210;-68
2023/12/18 08:52:24;;;;;;;20.35;11.93;;;0.80;99.90;;;;;;5109493;28;20211;-68
2023/12/18 08:54:52;;;;;;;17.25;10.75;;;0.90;99.90;;;;;;5108261;28;20288;-68
2023/12/18 08:57:20;;;;;;;19.35;11.20;;;1.00;99.90;;;;;;5109333;28;20233;-68
2023/12/18 08:59:50;;;;;;;19.58;11.10;;;1.10;99.90;;;;;;5109251;28;20762;-68
2023/12/18 09:02:18;;;;;;;20.03;12.73;;;1.20;99.90;;;;;;5109058;28;20225;-68
2023/12/18 09:04:46;;;;;;;23.20;12.93;;;1.30;99.90;;;;;;5108102;28;20476;-68
2023/12/18 09:07:14;;;;;;;18.57;11.10;;;1.30;99.90;;;;;;5108952;28;20470;-67
2023/12/18 09:09:43;;;;;;;15.50;10.00;;;1.30;99.90;;;;;;5107872;27;20460;-67
2023/12/18 09:12:12;;;;;;;18.67;10.88;;;1.40;99.90;;;;;;5107384;28;20484;-69
2023/12/18 09:14:40;;;;;;;19.23;12.20;;;1.30;99.90;;;;;;5105877;28;20230;-67
2023/12/18 09:17:08;;;;;;;18.67;10.10;;;1.40;99.90;;;;;;5107839;28;20962;-68
2023/12/18 09:19:36;;;;;;;19.80;11.30;;;1.40;99.90;;;;;;5100037;28;21096;-68
2023/12/18 09:22:04;;;;;;;18.05;11.35;;;1.40;99.90;;;;;;5108193;28;20297;-69
2023/12/18 09:24:33;;;;;;;17.10;10.40;;;1.40;99.90;;;;;;5106715;28;20209;-69
2023/12/18 09:27:03;;;;;;;18.70;10.67;;;1.50;99.90;;;;;;5107740;28;21115;-69
2023/12/18 09:29:31;;;;;;;22.40;10.73;;;1.60;99.90;;;;;;5107458;28;20449;-68
2023/12/18 09:31:59;;;;;;;19.00;11.17;;;1.60;99.90;;;;;;5107030;28;20455;-69
2023/12/18 09:34:30;;;;;;;18.23;11.27;;;1.70;99.90;;;;;;5105995;28;20541;-69
2023/12/18 09:37:00;;;;;;;18.90;12.37;;;1.80;99.90;;;;;;5107462;28;20522;-68
2023/12/18 09:39:28;;;;;;;21.67;12.70;;;1.90;99.90;;;;;;5107383;28;20449;-69
2023/12/18 09:42:02;;;;;;;23.93;11.60;;;1.80;99.90;;;;;;5107453;28;20547;-69
2023/12/18 09:44:31;;;;;;;21.17;12.10;;;1.90;99.90;;;;;;5105765;28;21002;-69
2023/12/18 09:47:00;;;;;;;18.37;11.50;;;2.00;99.90;;;;;;5108586;28;20896;-68
2023/12/18 09:49:28;;;;;;;20.47;12.97;;;2.00;99.90;;;;;;5108423;28;21048;-69
2023/12/18 09:52:01;;;;;;;23.27;13.53;;;2.00;99.90;;;;;;5108424;28;20462;-68
2023/12/18 09:54:30;;;;;;;20.47;11.37;;;2.10;99.90;;;;;;5107117;28;20480;-68
2023/12/18 09:57:00;;;;;;;20.73;13.07;;;2.20;99.90;;;;;;5108842;28;20472;-69
2023/12/18 09:59:29;;;;;;;19.10;12.20;;;2.20;99.90;;;;;;5108331;28;20515;-69
2023/12/18 10:01:59;;;;;;;20.97;13.73;;;2.20;99.90;;;;;;5108435;28;21099;-69
2023/12/18 10:04:27;;;;;;;17.40;11.53;;;2.30;99.90;;;;;;5106834;28;20463;-68
2023/12/18 10:06:55;;;;;;;20.67;12.43;;;2.40;99.90;;;;;;5107844;28;20469;-70
2023/12/18 10:09:24;;;;;;;18.17;10.67;;;2.50;99.90;;;;;;5107698;28;20474;-68
2023/12/18 10:11:55;;;;;;;19.93;12.20;;;2.60;99.90;;;;;;5108208;28;20464;-70
2023/12/18 10:14:24;;;;;;;19.40;11.17;;;2.80;99.90;;;;;;5107085;28;20495;-67
2023/12/18 10:16:57;;;;;;;18.40;11.70;;;2.80;99.90;;;;;;5107653;28;20481;-67
2023/12/18 10:19:27;;;;;;;19.40;11.93;;;3.10;99.90;;;;;;5106690;28;20509;-68
2023/12/18 10:21:58;;;;;;;21.77;13.60;;;3.80;99.90;;;;;;5106717;28;20446;-67
2023/12/18 10:24:27;;;;;;;17.30;11.07;;;4.70;99.90;;;;;;5105340;28;20440;-67
2023/12/18 10:26:55;;;;;;;17.30;11.47;;;5.60;99.90;;;;;;5106541;28;20550;-67
2023/12/18 10:29:23;;;;;;;16.87;10.47;;;6.40;99.90;;;;;;5107053;28;20457;-68
2023/12/18 10:31:51;;;;;;;19.30;10.83;;;6.90;99.90;;;;;;5106831;28;20447;-69
2023/12/18 10:34:22;;;;;;;15.00;10.60;;;7.00;99.90;;;;;;5105303;28;20492;-67
2023/12/18 10:36:54;;;;;;;17.33;10.70;;;7.10;99.90;;;;;;5107190;28;20809;-67
2023/12/18 10:39:25;;;;;;;19.63;11.80;;;6.90;99.90;;;;;;5106490;28;20450;-68
2023/12/18 10:41:56;;;;;;;19.27;10.17;;;6.30;99.90;;;;;;5105445;28;20442;-68
2023/12/18 10:44:25;;;;;;;14.63;9.87;;;5.80;99.90;;;;;;5104674;28;20470;-65
2023/12/18 10:46:55;;;;;;;16.97;11.00;;;5.30;99.90;;;;;;5105615;28;20993;-68
2023/12/18 10:49:28;;;;;;;16.97;11.77;;;4.90;99.90;;;;;;5107137;28;20442;-68
2023/12/18 10:51:57;;;;;;;17.50;10.77;;;4.70;99.90;;;;;;5106868;28;20429;-68
2023/12/18 10:54:25;;;;;;;18.40;11.83;;;4.50;99.90;;;;;;5104135;28;20486;-66
2023/12/18 10:56:55;;;;;;;17.40;11.80;;;4.40;99.90;;;;;;5106000;28;20475;-67
2023/12/18 10:59:24;;;;;;;19.17;11.20;;;4.30;99.90;;;;;;5105730;28;20446;-67
2023/12/18 11:01:54;;;;;;;17.13;11.20;;;4.20;99.90;;;;;;5105791;28;20498;-69
2023/12/18 11:04:26;;;;;;;18.53;11.60;;;4.20;99.90;;;;;;5105152;28;20444;-67
2023/12/18 11:06:57;;;;;;;17.57;11.00;;;4.10;99.90;;;;;;5105906;28;20453;-70
2023/12/18 11:09:26;;;;;;;16.80;10.47;;;4.10;99.90;;;;;;5105979;28;20442;-69
2023/12/18 11:11:54;;;;;;;14.40;9.70;;;4.20;99.90;;;;;;5106299;28;20792;-69
2023/12/18 11:14:38;;;;;;;15.40;10.57;;;4.20;99.90;;;;;;5104920;28;20478;-69
2023/12/18 11:17:16;;;;;;;16.70;9.80;;;4.30;99.90;;;;;;5105742;28;20471;-69
2023/12/18 11:19:50;;;;;;;18.80;11.87;;;4.40;99.90;;;;;;5105827;28;21214;-67
2023/12/18 11:22:39;;;;;;;18.27;10.77;;;4.40;99.90;;;;;;5104686;28;20439;-69
2023/12/18 11:25:09;;;;;;;14.53;9.40;;;4.50;99.90;;;;;;5105815;28;20454;-69
2023/12/18 11:27:39;;;;;;;17.30;9.90;;;4.40;99.90;;;;;;5106569;28;20440;-69
2023/12/18 11:30:23;;;;;;;17.43;11.40;;;4.60;99.90;;;;;;5106516;28;20434;-68
2023/12/18 11:32:52;;;;;;;18.20;9.30;;;4.60;99.90;;;;;;5106052;28;20510;-68
2023/12/18 11:35:28;;;;;;;16.30;10.37;;;4.70;99.90;;;;;;5105695;28;20494;-68
2023/12/18 11:38:05;;;;;;;13.77;9.20;;;4.70;99.90;;;;;;5106555;28;20437;-67
2023/12/18 11:40:39;;;;;;;13.67;8.83;;;4.60;99.90;;;;;;5106726;28;20541;-68
2023/12/18 11:43:09;;;;;;;16.40;9.77;;;4.70;99.90;;;;;;5106393;28;20459;-68
2023/12/18 11:45:41;;;;;;;17.47;10.90;;;4.70;99.90;;;;;;5106284;28;20502;-69
2023/12/18 11:48:14;;;;;;;17.10;9.80;;;4.90;99.90;;;;;;5106838;28;20516;-68
2023/12/18 11:50:43;;;;;;;15.50;8.80;;;5.00;99.90;;;;;;5106629;28;20835;-67
2023/12/18 11:53:32;;;;;;;14.13;8.77;;;5.10;99.90;;;;;;5105934;28;20478;-69
2023/12/18 11:56:06;;;;;;;14.90;8.77;;;5.10;99.90;;;;;;5105554;28;20494;-68
2023/12/18 11:58:36;;;;;;;15.03;8.90;;;5.10;99.90;;;;;;5106133;28;20521;-67
2023/12/18 12:01:05;;;;;;;15.00;9.37;;;5.20;99.90;;;;;;5106129;28;20451;-69
2023/12/18 12:03:34;;;;;;;15.00;8.90;;;5.20;99.90;;;;;;5105761;28;20521;-68
2023/12/18 12:06:07;;;;;;;14.40;8.30;;;5.30;99.90;;;;;;5105525;28;20555;-68
2023/12/18 12:08:42;;;;;;;13.30;8.37;;;5.20;99.90;;;;;;5106189;28;20449;-68
2023/12/18 12:11:10;;;;;;;16.13;9.77;;;5.30;99.90;;;;;;5106010;28;20948;-68
2023/12/18 12:13:38;;;;;;;14.33;8.53;;;5.40;99.90;;;;;;5105139;28;20443;-67
2023/12/18 12:16:07;;;;;;;14.13;9.00;;;5.40;99.90;;;;;;5104689;28;20494;-68
2023/12/18 12:18:44;;;;;;;15.33;8.60;;;5.50;99.90;;;;;;5104984;28;20568;-68
2023/12/18 12:21:12;;;;;;;19.07;9.90;;;5.60;99.90;;;;;;5105206;28;20539;-68
2023/12/18 12:23:42;;;;;;;19.70;8.67;;;5.60;99.90;;;;;;5104438;28;20487;-68
2023/12/18 12:26:10;;;;;;;15.50;9.00;;;5.60;99.90;;;;;;5104434;28;20613;-68
2023/12/18 12:28:43;;;;;;;13.77;8.10;;;5.60;99.90;;;;;;5105105;28;20445;-68
2023/12/18 12:31:11;;;;;;;14.80;8.93;;;5.60;99.90;;;;;;5105134;28;20553;-68
2023/12/18 12:33:42;;;;;;;16.90;8.93;;;5.60;99.90;;;;;;5104479;28;20448;-68
2023/12/18 12:36:16;;;;;;;15.47;8.57;;;5.60;99.90;;;;;;5104483;28;21209;-67
2023/12/18 12:38:49;;;;;;;13.90;9.00;;;5.70;99.90;;;;;;5105237;28;21069;-67
2023/12/18 12:41:17;;;;;;;12.40;8.20;;;5.80;99.90;;;;;;5104806;28;20473;-69
2023/12/18 12:43:45;;;;;;;13.30;9.20;;;5.80;99.90;;;;;;5102921;28;21077;-68